Latest Weather Observations for Parafield

IDS60801

Issued at 12:31 am CDT Friday 31 March 2017 (issued every 30 minutes, with the page automatically refreshed every 10 minutes)

About weather observations | Map of weather stations | Latest weather observations for SA | Other Formats
Station Details ID: 023013 Name: PARAFIELD AIRPORT Lat: -34.80 Lon: 138.63 Height: 9.5 m
Data from the previous 72 hours. | See also: Recent months at Parafield
Date/Time
CDT
Temp
°C
App
Temp
°C
Dew
Point
°C
Rel
Hum
%
Delta-T
°C
Wind Press
QNH
hPa
Press
MSL
hPa
Rain since
9am
mm
Dir  Spd
km/h
Gust
km/h
Spd
kts
Gust
kts
31/12:00am 10.9 10.3 7.4 79 1.7 CALM 0 0 0 0 1024.1 1024.0 0.0
 
Date/Time
CDT
Temp
°C
App
Temp
°C
Dew
Point
°C
Rel
Hum
%
Delta-T
°C
Wind Press
QNH
hPa
Press
MSL
hPa
Rain since
9am
mm
Dir  Spd
km/h
Gust
km/h
Spd
kts
Gust
kts
30/11:30pm 10.4 9.8 7.3 81 1.5 CALM 0 0 0 0 1024.3 1024.2 0.0
30/11:00pm 10.6 8.5 6.6 76 1.9 SE 7 7 4 4 1024.4 1024.3 0.0
30/10:30pm 11.3 9.2 6.6 73 2.2 S 7 9 4 5 1024.7 1024.6 0.0
30/10:00pm 12.1 10.0 6.8 70 2.5 S 7 7 4 4 1024.7 1024.6 0.0
30/09:30pm 12.0 9.5 6.7 70 2.5 SSE 9 13 5 7 1024.7 1024.6 0.0
30/09:00pm 12.8 10.4 6.8 67 2.9 SSE 9 13 5 7 1024.6 1024.5 0.0
30/08:30pm 14.1 10.5 6.9 62 3.5 SSE 15 20 8 11 1024.3 1024.2 0.0
30/08:00pm 15.2 10.5 6.0 54 4.4 S 20 28 11 15 1024.0 1023.9 0.0
30/07:30pm 16.2 10.3 5.8 50 5.0 S 26 35 14 19 1023.7 1023.6 0.0
30/07:00pm 17.1 12.1 6.3 49 5.3 S 22 33 12 18 1023.5 1023.4 0.0
30/06:30pm 17.7 12.6 5.9 46 5.7 S 22 32 12 17 1023.3 1023.2 0.0
30/06:00pm 18.9 14.0 6.7 45 6.1 SSW 22 30 12 16 1023.0 1022.9 0.0
30/05:30pm 18.7 13.0 6.9 46 5.9 SW 26 37 14 20 1022.9 1022.8 0.0
30/05:00pm 18.7 12.3 6.9 46 5.9 SW 30 39 16 21 1022.9 1022.8 0.0
30/04:30pm 18.4 12.7 8.4 52 5.1 SSW 28 37 15 20 1022.8 1022.7 0.0
30/04:00pm 18.0 11.8 7.7 51 5.2 SW 30 41 16 22 1022.7 1022.6 0.0
30/03:30pm 18.4 12.9 5.9 44 6.1 SW 24 33 13 18 1022.6 1022.5 0.0
30/03:00pm 19.2 13.3 7.3 46 6.0 S 28 37 15 20 1022.6 1022.5 0.0
30/02:30pm 19.3 13.3 7.1 45 6.1 SW 28 41 15 22 1022.7 1022.6 0.0
30/02:00pm 18.0 12.6 6.2 46 5.8 SW 24 33 13 18 1022.9 1022.8 0.0
30/01:30pm 18.6 15.1 7.1 47 5.8 SSW 15 26 8 14 1023.2 1023.1 0.0
30/01:00pm 19.6 16.1 7.4 45 6.2 SSW 15 20 8 11 1023.3 1023.2 0.0
30/12:30pm 17.6 13.1 7.1 50 5.2 S 20 28 11 15 1023.4 1023.3 0.0
30/12:00pm 19.4 15.0 7.5 46 6.0 SSW 20 28 11 15 1023.1 1023.0 0.0
30/11:30am 18.2 13.5 7.9 51 5.2 SSW 22 32 12 17 1023.0 1022.9 0.0
30/11:00am 17.1 12.0 7.7 54 4.7 S 24 33 13 18 1022.9 1022.8 0.0
30/10:30am 16.7 11.5 8.7 59 4.1 S 26 35 14 19 1023.0 1022.9 0.0
30/10:00am 15.9 10.6 8.4 61 3.8 S 26 35 14 19 1022.8 1022.7 0.0
30/09:30am 15.3 11.9 9.2 67 3.1 S 17 20 9 11 1022.6 1022.5 0.0
30/09:00am 14.6 12.6 10.2 75 2.3 SSW 11 17 6 9 1022.3 1022.2 3.8
30/08:30am 13.4 11.7 10.0 80 1.7 S 9 11 5 6 1022.0 1021.9 3.8
30/08:00am 11.8 10.0 9.4 85 1.2 S 9 13 5 7 1021.5 1021.5 3.8
30/07:30am 10.8 9.4 8.7 87 1.0 SSE 6 7 3 4 1020.9 1020.9 3.6
30/07:00am 11.0 9.0 8.6 85 1.2 S 9 13 5 7 1020.6 1020.6 3.6
30/06:30am 10.1 7.9 8.0 87 1.0 SSE 9 11 5 6 1020.5 1020.5 3.6
30/06:00am 10.9 9.3 8.7 86 1.1 SSE 7 9 4 5 1020.1 1020.1 3.6
30/05:30am 10.9 9.3 8.1 83 1.4 SSE 6 9 3 5 1019.6 1019.6 3.6
30/05:00am 11.2 11.0 9.1 87 1.0 CALM 0 0 0 0 1019.3 1019.3 2.8
30/04:30am 10.6 10.3 8.7 88 0.9 CALM 0 0 0 0 1018.9 1018.9 2.8
30/04:00am 10.5 8.4 8.3 86 1.1 SSE 9 11 5 6 1018.7 1018.7 2.8
30/03:30am 10.7 8.7 8.5 86 1.1 SSE 9 13 5 7 1018.5 1018.5 2.8
30/03:00am 10.8 10.2 9.1 89 0.8 S 2 7 1 4 1018.5 1018.5 2.8
30/02:30am 11.3 10.7 9.0 86 1.1 S 2 6 1 3 1018.3 1018.3 2.8
30/02:00am 11.2 10.3 9.3 88 1.0 SE 4 7 2 4 1018.2 1018.2 2.8
30/01:30am 11.7 9.1 9.3 85 1.2 SSE 13 17 7 9 1018.2 1018.2 2.8
30/01:13am 12.0 9.3 9.0 82 1.5 S 13 24 7 13 1018.2 1018.2 2.8
30/01:00am 12.0 10.0 10.1 88 1.0 SSW 11 19 6 10 1018.2 1018.2 2.8
30/12:56am 12.2 9.8 9.9 86 1.2 SW 13 20 7 11 1018.3 1018.3 2.6
30/12:30am 11.5 9.9 8.9 84 1.3 S 7 9 4 5 1017.9 1017.9 1.8
30/12:00am 11.6 9.4 9.2 85 1.2 SSE 11 15 6 8 1017.8 1017.8 1.8
 
Date/Time
CDT
Temp
°C
App
Temp
°C
Dew
Point
°C
Rel
Hum
%
Delta-T
°C
Wind Press
QNH
hPa
Press
MSL
hPa
Rain since
9am
mm
Dir  Spd
km/h
Gust
km/h
Spd
kts
Gust
kts
29/11:30pm 12.2 9.5 9.0 81 1.6 SSE 13 19 7 10 1017.7 1017.7 1.8
29/11:00pm 12.5 10.9 8.8 78 1.8 S 7 13 4 7 1017.5 1017.5 1.8
29/10:30pm 13.4 9.7 7.8 69 2.8 SSW 17 22 9 12 1017.1 1017.1 1.8
29/10:00pm 12.2 10.2 8.5 78 1.8 SSW 9 17 5 9 1016.7 1016.7 1.8
29/09:30pm 12.4 10.9 10.6 89 0.9 S 9 11 5 6 1016.5 1016.5 1.8
29/09:00pm 13.1 10.6 11.2 88 1.0 SSW 15 35 8 19 1016.3 1016.3 1.8
29/08:30pm 13.0 11.6 12.2 95 0.4 S 11 15 6 8 1015.7 1015.7 1.8
29/08:20pm 12.7 9.9 11.4 92 0.7 S 17 28 9 15 1015.6 1015.6 1.8
29/08:08pm 13.1 8.2 11.2 88 1.0 SSW 28 46 15 25 1015.4 1015.4 1.6
29/08:03pm 13.2 9.5 10.2 82 1.6 SSW 20 46 11 25 1015.3 1015.3 1.4
29/08:01pm 13.8 10.8 10.8 82 1.6 SSW 17 46 9 25 1015.4 1015.4 1.2
29/08:00pm 14.7 12.6 12.4 86 1.3 SSW 15 44 8 24 1015.4 1015.4 0.8
29/07:30pm 14.9 13.2 12.6 86 1.3 S 13 17 7 9 1014.3 1014.3 0.4
29/07:00pm 14.9 11.5 12.4 85 1.4 SSW 22 32 12 17 1014.0 1014.0 0.4
29/06:30pm 16.7 11.9 13.0 79 2.1 WSW 30 48 16 26 1013.1 1013.1 0.4
29/06:27pm 17.6 12.9 12.1 70 3.0 WSW 28 46 15 25 1013.0 1013.0 0.4
29/06:00pm 17.1 14.2 12.2 73 2.7 SW 19 26 10 14 1012.7 1012.7 0.4
29/05:30pm 17.6 11.8 10.7 64 3.7 WSW 32 43 17 23 1012.3 1012.3 0.4
29/05:00pm 17.9 15.3 13.8 77 2.3 SW 20 32 11 17 1012.2 1012.2 0.4
29/04:30pm 16.4 13.8 14.9 91 0.9 SSW 22 32 12 17 1012.1 1012.1 0.4
29/04:25pm 16.1 13.4 14.6 91 0.9 SSW 22 32 12 17 1012.2 1012.2 0.4
29/04:17pm 16.2 13.3 15.1 93 0.6 SSW 24 35 13 19 1012.1 1012.1 0.4
29/04:01pm 15.8 10.7 14.8 94 0.6 SSW 35 46 19 25 1012.1 1012.1 0.2
29/04:00pm 15.8 10.7 14.8 94 0.6 SSW 35 46 19 25 1012.0 1012.0 0.2
29/03:56pm 15.7 10.1 14.4 92 0.7 SSW 37 46 20 25 1011.9 1011.9 0.2
29/03:36pm 16.1 11.5 15.0 93 0.6 SSW 33 46 18 25 1011.5 1011.5 0.2
29/03:30pm 16.3 10.9 15.0 92 0.8 SSW 37 52 20 28 1011.4 1011.4 0.2
29/03:02pm 16.7 11.8 15.4 92 0.8 SSW 35 54 19 29 1010.9 1010.9 0.0
29/03:00pm 16.7 11.4 15.2 91 0.9 SSW 37 54 20 29 1010.9 1010.9 0.0
29/02:55pm 16.8 10.3 15.0 89 1.0 SW 43 54 23 29 1010.7 1010.7 0.0
29/02:46pm 19.2 14.8 16.6 85 1.6 W 35 57 19 31 1010.3 1010.3 0.0
29/02:44pm 19.9 15.8 16.5 81 2.0 W 33 57 18 31 1010.3 1010.3 0.0
29/02:30pm 22.6 17.6 13.4 56 5.3 WNW 32 41 17 22 1010.1 1010.1 0.0
29/02:00pm 23.0 17.6 12.9 53 5.8 WNW 33 46 18 25 1010.5 1010.5 0.0
29/01:30pm 22.4 16.8 13.2 56 5.3 WNW 35 46 19 25 1010.8 1010.8 0.0
29/01:00pm 23.1 18.0 13.6 55 5.5 WNW 33 44 18 24 1011.1 1011.1 0.0
29/12:30pm 23.3 18.4 13.8 55 5.5 WNW 32 43 17 23 1011.2 1011.2 0.0
29/12:00pm 21.9 17.0 13.8 60 4.7 NW 32 44 17 24 1011.3 1011.3 0.0
29/11:30am 21.2 17.1 13.9 63 4.2 NW 28 39 15 21 1011.6 1011.6 0.0
29/11:00am 21.0 16.9 13.7 63 4.2 NW 28 35 15 19 1011.8 1011.8 0.0
29/10:30am 20.5 17.7 14.2 67 3.7 NW 22 30 12 16 1011.8 1011.8 0.0
29/10:00am 20.0 18.8 14.1 69 3.4 NNW 13 19 7 10 1011.9 1011.9 0.0
29/09:30am 18.1 16.6 13.2 73 2.8 NNW 13 19 7 10 1011.8 1011.8 0.0
29/09:00am 16.5 14.6 13.0 80 2.0 N 15 20 8 11 1011.8 1011.8 0.0
29/08:30am 15.5 14.0 13.0 85 1.4 N 13 17 7 9 1011.8 1011.8 0.0
29/08:00am 14.4 12.9 13.0 91 0.8 N 13 17 7 9 1011.6 1011.6 0.0
29/07:30am 14.4 13.3 13.0 91 0.8 N 11 15 6 8 1011.5 1011.5 0.0
29/07:00am 14.5 13.3 12.9 90 0.9 N 11 15 6 8 1011.4 1011.4 0.0
29/06:30am 14.1 12.5 12.7 91 0.8 N 13 17 7 9 1011.1 1011.1 0.0
29/06:00am 14.0 12.9 13.1 94 0.5 N 11 15 6 8 1010.7 1010.7 0.0
29/05:30am 12.4 11.5 11.3 93 0.6 N 7 9 4 5 1010.8 1010.8 0.0
29/05:00am 13.0 12.2 11.7 92 0.7 N 7 7 4 4 1010.8 1010.8 0.0
29/04:30am 13.2 12.5 11.9 92 0.7 NE 7 9 4 5 1010.9 1010.9 0.0
29/04:00am 12.9 12.0 11.5 91 0.7 NNE 7 9 4 5 1011.1 1011.1 0.0
29/03:30am 14.0 13.5 12.7 92 0.7 N 7 11 4 6 1011.4 1011.4 0.0
29/03:00am 13.1 12.2 11.5 90 0.8 NNE 7 9 4 5 1011.3 1011.3 0.0
29/02:30am 13.3 12.5 11.7 90 0.9 NNE 7 9 4 5 1011.6 1011.6 0.0
29/02:00am 13.2 13.6 11.4 89 1.0 CALM 0 0 0 0 1011.8 1011.8 0.0
29/01:30am 13.7 14.3 11.8 88 1.0 CALM 0 0 0 0 1012.1 1012.1 0.0
29/01:00am 14.5 13.9 11.7 83 1.5 NE 6 7 3 4 1012.5 1012.5 0.0
29/12:30am 14.4 13.7 11.4 82 1.6 NE 6 9 3 5 1012.8 1012.8 0.0
29/12:00am 15.0 15.4 11.4 79 1.9 CALM 0 0 0 0 1013.2 1013.2 0.0
 
Date/Time
CDT
Temp
°C
App
Temp
°C
Dew
Point
°C
Rel
Hum
%
Delta-T
°C
Wind Press
QNH
hPa
Press
MSL
hPa
Rain since
9am
mm
Dir  Spd
km/h
Gust
km/h
Spd
kts
Gust
kts
28/11:30pm 16.1 16.4 12.3 78 2.1 ENE 2 6 1 3 1013.3 1013.3 0.0
28/11:00pm 16.3 17.0 12.1 76 2.3 CALM 0 0 0 0 1013.5 1013.5 0.0
28/10:30pm 15.3 15.7 11.3 77 2.1 CALM 0 0 0 0 1013.4 1013.4 0.0
28/10:00pm 15.8 16.2 11.4 75 2.4 CALM 0 0 0 0 1013.5 1013.5 0.0
28/09:30pm 16.1 16.6 11.7 75 2.4 CALM 0 0 0 0 1013.4 1013.4 0.0
28/09:00pm 16.6 16.9 10.9 69 3.1 CALM 0 0 0 0 1013.2 1013.2 0.0
28/08:30pm 17.8 18.2 11.4 66 3.5 CALM 0 0 0 0 1013.1 1013.1 0.0
28/08:00pm 18.0 17.2 11.1 64 3.7 WSW 6 7 3 4 1012.8 1012.8 0.0
28/07:30pm 19.4 18.1 11.2 59 4.5 W 9 13 5 7 1012.5 1012.5 0.0
28/07:00pm 20.7 17.9 11.3 55 5.2 WSW 17 24 9 13 1012.7 1012.7 0.0
28/06:30pm 21.9 19.0 11.0 50 6.0 WSW 17 22 9 12 1012.6 1012.6 0.0
28/06:00pm 22.7 19.2 10.8 47 6.6 WSW 20 26 11 14 1012.6 1012.6 0.0
28/05:30pm 23.4 20.4 10.5 44 7.1 WNW 17 26 9 14 1012.7 1012.7 0.0
28/05:00pm 23.8 20.6 10.1 42 7.5 WSW 17 24 9 13 1012.7 1012.7 0.0
28/04:30pm 23.9 21.0 10.9 44 7.2 NW 17 22 9 12 1013.1 1013.1 0.0
28/04:00pm 23.2 20.2 10.6 45 7.0 WNW 17 24 9 13 1013.2 1013.2 0.0
28/03:30pm 23.3 20.8 11.0 46 6.8 NW 15 22 8 12 1013.5 1013.5 0.0
28/03:00pm 23.2 21.0 10.9 46 6.8 NW 13 20 7 11 1013.7 1013.7 0.0
28/02:30pm 22.8 19.9 10.9 47 6.6 NW 17 24 9 13 1014.3 1014.3 0.0
28/02:00pm 22.8 19.9 10.9 47 6.6 NW 17 30 9 16 1014.6 1014.6 0.0
28/01:30pm 22.4 20.2 10.9 48 6.4 WNW 13 22 7 12 1015.0 1015.0 0.0
28/01:00pm 23.0 20.3 12.9 53 5.8 NNW 19 24 10 13 1015.5 1015.5 0.0
28/12:30pm 21.0 18.3 11.6 55 5.2 WNW 17 32 9 17 1016.0 1016.0 0.0
28/12:00pm 20.7 19.1 11.6 56 5.0 W 11 20 6 11 1016.4 1016.4 0.0
28/11:30am 20.0 19.1 12.5 62 4.2 NW 9 13 5 7 1016.7 1016.7 0.0
28/11:00am 19.1 17.8 12.4 65 3.7 NNW 11 17 6 9 1016.9 1016.9 0.0
28/10:30am 18.2 16.9 12.4 69 3.2 NNW 11 15 6 8 1017.0 1017.0 0.0
28/10:00am 17.4 15.8 11.7 69 3.1 N 11 15 6 8 1016.8 1016.8 0.0
28/09:30am 16.7 15.1 11.4 71 2.9 N 11 15 6 8 1016.8 1016.8 0.0
28/09:00am 16.1 14.9 11.5 74 2.5 N 9 13 5 7 1016.5 1016.5 0.0
28/08:30am 15.0 13.4 11.6 80 1.8 N 11 15 6 8 1016.4 1016.4 0.0
28/08:00am 12.7 12.2 10.8 88 1.0 NNE 4 7 2 4 1016.0 1016.0 0.0
28/07:30am 12.6 10.8 10.7 88 1.0 NNE 11 15 6 8 1015.9 1015.9 0.0
28/07:00am 12.4 10.9 10.5 88 1.0 N 9 11 5 6 1015.7 1015.7 0.0
28/06:30am 12.3 10.8 10.7 90 0.8 N 9 13 5 7 1015.3 1015.3 0.0
28/06:00am 12.7 11.8 10.6 87 1.1 NE 6 9 3 5 1015.2 1015.2 0.0
28/05:30am 12.5 11.4 9.9 84 1.3 WSW 6 11 3 6 1015.3 1015.3 0.0
28/05:00am 13.0 11.2 10.9 87 1.1 NE 11 15 6 8 1015.2 1015.2 0.0
28/04:30am 13.9 13.8 10.9 82 1.6 NE 2 9 1 5 1015.2 1015.2 0.0
28/04:00am 14.4 13.1 11.2 81 1.7 SW 9 15 5 8 1015.4 1015.4 0.0
28/03:30am 12.8 13.1 11.0 89 0.9 CALM 0 2 0 1 1015.9 1015.9 0.0
28/03:00am 13.1 12.9 10.6 85 1.3 NE 2 7 1 4 1016.0 1016.0 0.0
28/02:30am 14.6 13.4 11.7 83 1.6 NNE 9 9 5 5 1016.3 1016.3 0.0
28/02:00am 14.7 13.9 11.7 82 1.6 NNE 7 9 4 5 1016.4 1016.4 0.0
28/01:30am 14.3 13.3 10.9 80 1.8 NNW 7 9 4 5 1016.4 1016.4 0.0
28/01:00am 15.6 15.0 11.6 77 2.2 W 6 7 3 4 1016.5 1016.5 0.0

Other Formats:

Comma delimited format used in spreadsheet applications
http://www.bom.gov.au/fwo/IDS60801/IDS60801.95677.axf

JavaScript Object Notation format (JSON) in row-major order
http://www.bom.gov.au/fwo/IDS60801/IDS60801.95677.json